Aérodrome :
LOGIN :

S'inscrire | Disclaimer

   EN    FR    IT 

 










Légende :    VFR   VFR Marginal   IFR   IFR Intensif   IFR Très Intensif
Visi : 
Plafond : 
>= 8 km
>= 3000ft
5 à 8 km
1000 à 3000 ft
1500m à 5 km
500 à 1000 ft
800 à 1500m
200 à 500 ft
< 800m
< 200 ft
Symboles :   Orages  Brouillard  Fortes neiges  Fortes précipitations  Vent > 20 kt
SIGMETs :   Divers  Orages  Givrage  Turbulence  Onde Orograph.  Cendres Volcan.







- Altitude de l'aérodrome : 1674 ft
- Code IATA : BRN


LSZB - Bern Belp

DERNIER METAR :
  • 150750Z 33003KT 9000 FEW017 BKN022 M01/M05 Q1021 NOSIG

METARs EXPIRÉS :
  • 150720Z 29003KT 240V330 8000 FEW017 OVC022 M01/M05 Q1021 NOSIG
  • 150650Z VRB02KT 9000 BKN021 M01/M04 Q1021 NOSIG
  • 150620Z VRB02KT 9000 BKN019 M01/M04 Q1021 NOSIG
  • 150550Z 28004KT 7000 BKN018 M01/M04 Q1021 NOSIG
  • 150520Z 32003KT 7000 BKN020 M01/M04 Q1021 NOSIG

TAF TAF LSZB
Valide du 15 à 06h jusqu'au 15 à 15h UTC


150525Z 1506/1515 VRB03KT 8000 SCT015 OVC020
PROB40 1506/1508 OVC013
BECMG 1511/1514 CAVOK
ATIS : +41 22 417 40 76
Pas de NOTAMs connus pour ce terrain.



MET'MAP, la Météo Aéronautique d'un coup d'oeil ! - Copyright ORBIFLY Décembre 2007 - Disclaimer

ORBIFLY MET'MAP TEAM :

Programmation & Développement : Alexandra Zaïnal
Conception & Développement : Baudouin d'Aumeries
Co-Programmation & Développement : Marc-Olivier Méhu
Soutien technique & logistique : Manuel Goepfert

Contact : metmap@orbifly.com




SOURCES & CREDITS :

   NOAA